| time (UTC) | temp F | wind direction | speed knots | gust knots | rain 1hr in | rain 24hr in | rain mn in | humidity % | barometer mb |
| 20260507090311 | 51 | 265 | 3.5 | 5.2 | 0.00 | 0.09 | 0.09 | 90 | 1013.7 |
| 20260507085312 | 50 | 240 | 3.5 | 6.1 | 0.00 | 0.09 | 0.09 | 92 | 1013.7 |
| 20260507084311 | 49 | 244 | 3.5 | 6.1 | 0.00 | 0.09 | 0.09 | 91 | 1013.7 |
| 20260507083312 | 49 | 231 | 3.5 | 6.1 | 0.00 | 0.09 | 0.09 | 92 | 1013.6 |
| 20260507082312 | 49 | 225 | 2.6 | 7.8 | 0.00 | 0.09 | 0.09 | 92 | 1013.4 |
| 20260507081311 | 49 | 242 | 3.5 | 8.7 | 0.00 | 0.09 | 0.09 | 93 | 1013.3 |
| 20260507080311 | 48 | 226 | 2.6 | 8.7 | 0.01 | 0.09 | 0.09 | 93 | 1013.3 |
| 20260507075311 | 48 | 236 | 3.5 | 6.1 | 0.01 | 0.09 | 0.09 | 93 | 1013.3 |
| 20260507074311 | 48 | 239 | 3.5 | 8.7 | 0.02 | 0.09 | 0.09 | 94 | 1013.2 |
| 20260507073312 | 47 | 214 | 2.6 | 5.2 | 0.02 | 0.09 | 0.09 | 94 | 1013.2 |
| 20260507072312 | 47 | 265 | 2.6 | 4.3 | 0.04 | 0.09 | 0.09 | 93 | 1013.1 |
| 20260507071311 | 47 | 249 | 1.7 | 5.2 | 0.06 | 0.09 | 0.09 | 93 | 1013.0 |
| 20260507070311 | 47 | 232 | 3.5 | 6.1 | 0.06 | 0.09 | 0.09 | 93 | 1013.0 |
| 20260507065311 | 47 | 190 | 3.5 | 7.8 | 0.06 | 0.09 | 0.09 | 93 | 1012.8 |
| 20260507064311 | 47 | 223 | 4.3 | 6.1 | 0.06 | 0.08 | 0.08 | 93 | 1012.7 |
| 20260507063312 | 47 | 244 | 3.5 | 7.8 | 0.06 | 0.07 | 0.07 | 93 | 1012.7 |
| 20260507062311 | 47 | 205 | 5.2 | 7.0 | 0.05 | 0.06 | 0.06 | 93 | 1012.7 |
| 20260507061311 | 47 | 210 | 3.5 | 7.0 | 0.03 | 0.04 | 0.04 | 93 | 1012.5 |
| 20260507060311 | 47 | 224 | 2.6 | 7.0 | 0.02 | 0.03 | 0.03 | 93 | 1012.5 |
| 20260507055311 | 46 | 236 | 3.5 | 7.8 | 0.03 | 0.03 | 0.03 | 92 | 1012.4 |
| 20260507054311 | 46 | 217 | 3.5 | 7.8 | 0.02 | 0.02 | 0.02 | 92 | 1012.3 |
| 20260507053312 | 47 | 211 | 3.5 | 7.0 | 0.02 | 0.02 | 0.02 | 91 | 1012.3 |
| 20260507052311 | 47 | 217 | 2.6 | 6.1 | 0.01 | 0.01 | 0.01 | 92 | 1012.1 |
| 20260507051311 | 46 | 207 | 2.6 | 6.1 | 0.01 | 0.01 | 0.01 | 91 | 1011.9 |
| 20260507050311 | 46 | 292 | 1.7 | 5.2 | 0.01 | 0.01 | 0.01 | 92 | 1011.8 |
| 20260507045311 | 46 | 220 | 2.6 | 3.5 | 0.00 | 0.00 | 0.00 | 92 | 1011.6 |
| 20260507044311 | 46 | 200 | 2.6 | 7.8 | 0.00 | 0.00 | 0.00 | 92 | 1011.5 |
| 20260507043312 | 46 | 233 | 2.6 | 7.0 | 0.00 | 0.00 | 0.00 | 93 | 1011.5 |
| 20260507042311 | 45 | 213 | 2.6 | 4.3 | 0.00 | 0.00 | 0.00 | 93 | 1011.2 |
| 20260507041311 | 45 | 230 | 1.7 | 4.3 | 0.00 | 0.00 | 0.00 | 93 | 1011.2 |
| 20260507040311 | 45 | 213 | 2.6 | 5.2 | 0.00 | 0.00 | 0.00 | 93 | 1011.2 |
| 20260507035311 | 44 | 219 | 1.7 | 4.3 | 0.00 | 0.00 | 0.00 | 93 | 1011.0 |
| 20260507034311 | 43 | 225 | 0.0 | 3.5 | 0.00 | 0.00 | 0.00 | 93 | 1011.1 |
| 20260507033312 | 43 | 201 | 1.7 | 4.3 | 0.00 | 0.00 | 0.00 | 92 | 1011.0 |
| 20260507032311 | 44 | 215 | 1.7 | 4.3 | 0.00 | 0.00 | 0.00 | 92 | 1010.8 |
| 20260507031311 | 45 | 221 | 0.9 | 3.5 | 0.00 | 0.00 | 0.00 | 93 | 1010.8 |
| 20260507030311 | 44 | 209 | 0.0 | 1.7 | 0.00 | 0.00 | 0.00 | 92 | 1011.0 |
| 20260507025311 | 45 | 209 | 0.9 | 2.6 | 0.00 | 0.00 | 0.00 | 92 | 1010.9 |
| 20260507024311 | 46 | 207 | 0.9 | 2.6 | 0.00 | 0.00 | 0.00 | 93 | 1010.9 |
| 20260507023312 | 45 | 203 | 1.7 | 4.3 | 0.00 | 0.00 | 0.00 | 92 | 1010.9 |
| 20260507022311 | 45 | 223 | 0.9 | 2.6 | 0.00 | 0.00 | 0.00 | 93 | 1011.0 |
| 20260507021311 | 45 | 234 | 0.9 | 2.6 | 0.00 | 0.00 | 0.00 | 92 | 1010.8 |
| 20260507020311 | 44 | 202 | 0.0 | 0.9 | 0.00 | 0.00 | 0.00 | 92 | 1010.8 |
| 20260507015311 | 45 | 202 | 0.0 | 1.7 | 0.00 | 0.00 | 0.00 | 92 | 1010.6 |
| 20260507014311 | 44 | 200 | 0.0 | 0.0 | 0.00 | 0.00 | 0.00 | 92 | 1010.5 |
| 20260507013313 | 45 | 200 | 0.0 | 0.0 | 0.00 | 0.00 | 0.00 | 91 | 1010.5 |
| 20260507012313 | 44 | 200 | 0.0 | 0.0 | 0.00 | 0.00 | 0.00 | 91 | 1010.5 |
| 20260507011312 | 45 | 200 | 0.0 | 0.0 | 0.00 | 0.00 | 0.00 | 91 | 1010.4 |
| 20260507010311 | 45 | 200 | 0.0 | 1.7 | 0.00 | 0.00 | 0.00 | 91 | 1010.4 |
| 20260507005311 | 44 | 200 | 0.0 | 0.0 | 0.00 | 0.00 | 0.00 | 90 | 1010.3 |
| 20260507004311 | 45 | 200 | 0.0 | 0.9 | 0.00 | 0.00 | 0.00 | 90 | 1010.2 |
| 20260507003311 | 45 | 207 | 0.0 | 0.9 | 0.00 | 0.00 | 0.00 | 91 | 1010.1 |
| 20260507002311 | 45 | 207 | 0.0 | 0.9 | 0.00 | 0.00 | 0.00 | 90 | 1010.2 |
| 20260507001311 | 45 | 207 | 0.0 | 1.7 | 0.00 | 0.00 | 0.00 | 90 | 1010.2 |
| 20260507000311 | 44 | 207 | 0.9 | 2.6 | 0.00 | 0.00 | 0.00 | 90 | 1010.4 |
| 20260506235311 | 45 | 207 | 0.9 | 2.6 | 0.00 | 0.00 | 0.00 | 90 | 1010.4 |
| 20260506234311 | 45 | 206 | 1.7 | 4.3 | 0.00 | 0.00 | 0.00 | 90 | 1010.4 |
| 20260506233311 | 45 | 192 | 0.0 | 0.9 | 0.00 | 0.00 | 0.00 | 90 | 1010.4 |
| 20260506232311 | 45 | 191 | 0.0 | 1.7 | 0.00 | 0.00 | 0.00 | 90 | 1010.5 |
| 20260506231311 | 44 | 204 | 0.0 | 3.5 | 0.00 | 0.00 | 0.00 | 90 | 1010.3 |
| 20260506230311 | 44 | 219 | 0.0 | 3.5 | 0.00 | 0.00 | 0.00 | 89 | 1010.2 |
| 20260506225311 | 45 | 206 | 1.7 | 5.2 | 0.00 | 0.00 | 0.00 | 88 | 1010.2 |
| 20260506224311 | 46 | 210 | 2.6 | 5.2 | 0.00 | 0.00 | 0.00 | 88 | 1010.2 |
| 20260506223311 | 46 | 216 | 2.6 | 6.1 | 0.00 | 0.00 | 0.00 | 88 | 1010.2 |
| 20260506222311 | 46 | 211 | 2.6 | 6.1 | 0.00 | 0.00 | 0.00 | 88 | 1010.1 |
| 20260506221311 | 46 | 213 | 4.3 | 6.1 | 0.00 | 0.00 | 0.00 | 88 | 1010.2 |
| 20260506220311 | 46 | 223 | 3.5 | 6.1 | 0.00 | 0.00 | 0.00 | 90 | 1010.2 |
| 20260506215311 | 46 | 216 | 2.6 | 7.0 | 0.00 | 0.05 | 0.05 | 91 | 1010.2 |
| 20260506214311 | 45 | 219 | 2.6 | 4.3 | 0.00 | 0.05 | 0.05 | 90 | 1010.1 |
| 20260506213311 | 46 | 220 | 0.9 | 4.3 | 0.00 | 0.05 | 0.05 | 89 | 1010.0 |
| 20260506212311 | 46 | 213 | 2.6 | 6.1 | 0.00 | 0.05 | 0.05 | 90 | 1010.0 |
| 20260506211311 | 46 | 227 | 2.6 | 5.2 | 0.00 | 0.05 | 0.05 | 89 | 1010.0 |
| 20260506210311 | 46 | 214 | 2.6 | 6.1 | 0.00 | 0.05 | 0.05 | 90 | 1009.9 |
| 20260506205311 | 46 | 196 | 3.5 | 5.2 | 0.00 | 0.05 | 0.05 | 90 | 1009.8 |
| 20260506204326 | 46 | 213 | 2.6 | 4.3 | 0.00 | 0.05 | 0.05 | 91 | 1009.8 |
| 20260506203311 | 46 | 211 | 1.7 | 3.5 | 0.00 | 0.05 | 0.05 | 91 | 1009.8 |
| 20260506202310 | 46 | 205 | 2.6 | 6.1 | 0.00 | 0.05 | 0.05 | 91 | 1009.7 |
| 20260506201311 | 46 | 202 | 2.6 | 3.5 | 0.00 | 0.05 | 0.05 | 90 | 1009.6 |
| 20260506200311 | 46 | 218 | 1.7 | 5.2 | 0.00 | 0.05 | 0.05 | 90 | 1009.5 |
| 20260506195311 | 46 | 215 | 2.6 | 3.5 | 0.00 | 0.05 | 0.05 | 90 | 1009.5 |
| 20260506194310 | 47 | 203 | 0.9 | 5.2 | 0.00 | 0.05 | 0.05 | 89 | 1009.5 |
| 20260506193311 | 47 | 231 | 3.5 | 4.3 | 0.00 | 0.05 | 0.05 | 89 | 1009.4 |
| 20260506192311 | 47 | 214 | 1.7 | 6.1 | 0.00 | 0.05 | 0.05 | 90 | 1009.2 |
| 20260506191311 | 47 | 202 | 1.7 | 3.5 | 0.00 | 0.05 | 0.05 | 90 | 1009.1 |
| 20260506190311 | 47 | 215 | 0.9 | 3.5 | 0.00 | 0.05 | 0.05 | 89 | 1008.8 |
| 20260506185311 | 47 | 221 | 1.7 | 3.5 | 0.00 | 0.05 | 0.05 | 89 | 1008.6 |
| 20260506184310 | 47 | 213 | 2.6 | 3.5 | 0.00 | 0.05 | 0.05 | 89 | 1008.6 |
| 20260506183311 | 47 | 226 | 1.7 | 3.5 | 0.00 | 0.05 | 0.05 | 89 | 1008.6 |
| 20260506182310 | 47 | 226 | 1.7 | 5.2 | 0.00 | 0.05 | 0.05 | 88 | 1008.4 |
| 20260506181311 | 48 | 228 | 2.6 | 6.1 | 0.00 | 0.05 | 0.05 | 87 | 1008.2 |
| 20260506180310 | 49 | 238 | 3.5 | 7.8 | 0.00 | 0.05 | 0.05 | 86 | 1008.2 |
| 20260506175310 | 49 | 240 | 4.3 | 7.0 | 0.00 | 0.05 | 0.05 | 87 | 1008.1 |
| 20260506174311 | 50 | 240 | 4.3 | 5.2 | 0.00 | 0.05 | 0.05 | 87 | 1008.2 |
| 20260506173310 | 50 | 235 | 2.6 | 7.0 | 0.00 | 0.05 | 0.05 | 87 | 1008.0 |
| 20260506172310 | 50 | 203 | 3.5 | 7.8 | 0.00 | 0.05 | 0.05 | 87 | 1008.0 |
| 20260506171310 | 50 | 240 | 4.3 | 9.6 | 0.00 | 0.05 | 0.05 | 87 | 1007.8 |
| 20260506170311 | 50 | 219 | 6.1 | 9.6 | 0.00 | 0.05 | 0.05 | 86 | 1007.6 |
| 20260506165310 | 51 | 216 | 5.2 | 7.0 | 0.00 | 0.05 | 0.05 | 87 | 1007.6 |
| 20260506164310 | 50 | 221 | 3.5 | 6.1 | 0.00 | 0.05 | 0.05 | 89 | 1007.2 |
| 20260506163310 | 49 | 231 | 3.5 | 7.8 | 0.00 | 0.05 | 0.05 | 89 | 1007.6 |
| 20260506162310 | 49 | 227 | 5.2 | 7.0 | 0.00 | 0.05 | 0.05 | 88 | 1007.6 |
| 20260506161310 | 49 | 236 | 3.5 | 10.4 | 0.00 | 0.05 | 0.05 | 89 | 1007.9 |
| 20260506160310 | 49 | 235 | 6.1 | 11.3 | 0.00 | 0.05 | 0.05 | 88 | 1007.9 |
| 20260506155311 | 49 | 199 | 6.1 | 13.0 | 0.00 | 0.05 | 0.05 | 88 | 1007.8 |
| 20260506154310 | 50 | 230 | 6.1 | 11.3 | 0.00 | 0.05 | 0.05 | 88 | 1007.6 |
| 20260506153310 | 50 | 239 | 5.2 | 13.9 | 0.01 | 0.05 | 0.05 | 89 | 1007.1 |
| 20260506152311 | 49 | 210 | 6.1 | 11.3 | 0.01 | 0.05 | 0.05 | 88 | 1006.9 |
| 20260506151310 | 50 | 227 | 5.2 | 15.6 | 0.01 | 0.05 | 0.05 | 90 | 1006.8 |
| 20260506150310 | 49 | 234 | 7.0 | 15.6 | 0.01 | 0.05 | 0.05 | 88 | 1006.6 |
| 20260506145310 | 49 | 279 | 6.1 | 20.0 | 0.01 | 0.05 | 0.05 | 87 | 1006.5 |
| 20260506144311 | 50 | 252 | 10.4 | 20.0 | 0.01 | 0.05 | 0.05 | 83 | 1006.1 |
| 20260506143311 | 54 | 219 | 7.0 | 20.0 | 0.01 | 0.04 | 0.04 | 76 | 1005.8 |
| 20260506142310 | 61 | 232 | 6.1 | 6.1 | 0.01 | 0.04 | 0.04 | 76 | 1004.8 |
| 20260506141310 | 60 | 234 | 3.5 | 5.2 | 0.01 | 0.04 | 0.04 | 76 | 1004.7 |
| 20260506140310 | 61 | 231 | 1.7 | 3.5 | 0.01 | 0.04 | 0.04 | 75 | 1004.4 |
| 20260506135311 | 60 | 170 | 1.7 | 3.5 | 0.02 | 0.04 | 0.04 | 73 | 1004.3 |
| 20260506134311 | 59 | 196 | 1.7 | 4.3 | 0.02 | 0.04 | 0.04 | 73 | 1004.4 |
| 20260506133310 | 58 | 144 | 0.9 | 5.2 | 0.02 | 0.03 | 0.03 | 82 | 1004.4 |
| 20260506132311 | 56 | 89 | 1.7 | 6.1 | 0.03 | 0.03 | 0.03 | 84 | 1004.5 |
| 20260506131310 | 56 | 94 | 3.5 | 2.6 | 0.03 | 0.03 | 0.03 | 85 | 1004.5 |
| 20260506130310 | 54 | 221 | 0.9 | 1.7 | 0.03 | 0.03 | 0.03 | 84 | 1005.0 |
| 20260506125310 | 55 | 221 | 0.9 | 1.7 | 0.02 | 0.02 | 0.02 | 84 | 1005.1 |
| 20260506124310 | 55 | 221 | 0.0 | 4.3 | 0.02 | 0.02 | 0.02 | 82 | 1005.0 |
| 20260506123310 | 57 | 247 | 1.7 | 2.6 | 0.01 | 0.01 | 0.01 | 78 | 1004.9 |
| 20260506122310 | 58 | 246 | 1.7 | 2.6 | 0.00 | 0.00 | 0.00 | 71 | 1004.7 |
| 20260506121310 | 59 | 328 | 0.9 | 3.5 | 0.00 | 0.00 | 0.00 | 68 | 1004.4 |
| 20260506120310 | 59 | 5 | 0.9 | 5.2 | 0.00 | 0.00 | 0.00 | 67 | 1004.2 |
| 20260506115310 | 59 | 5 | 3.5 | 6.1 | 0.00 | 0.00 | 0.00 | 67 | 1004.1 |
| 20260506114310 | 60 | 348 | 2.6 | 7.8 | 0.00 | 0.00 | 0.00 | 66 | 1003.9 |
| 20260506113310 | 59 | 338 | 1.7 | 4.3 | 0.00 | 0.00 | 0.00 | 67 | 1004.1 |
| 20260506112310 | 59 | 315 | 1.7 | 5.2 | 0.00 | 0.00 | 0.00 | 66 | 1004.1 |
| 20260506111310 | 59 | 5 | 2.6 | 4.3 | 0.00 | 0.00 | 0.00 | 68 | 1004.6 |
| 20260506110310 | 59 | 340 | 1.7 | 6.1 | 0.00 | 0.00 | 0.00 | 66 | 1004.3 |
| 20260506105310 | 60 | 350 | 2.6 | 4.3 | 0.00 | 0.00 | 0.00 | 66 | 1004.5 |
| 20260506104311 | 60 | 346 | 0.0 | 7.0 | 0.00 | 0.00 | 0.00 | 67 | 1004.6 |
| 20260506103310 | 60 | 355 | 1.7 | 5.2 | 0.00 | 0.00 | 0.00 | 68 | 1004.6 |
| 20260506102310 | 60 | 348 | 0.9 | 4.3 | 0.00 | 0.00 | 0.00 | 69 | 1004.6 |
| 20260506101310 | 59 | 346 | 1.7 | 6.1 | 0.00 | 0.00 | 0.00 | 71 | 1004.7 |
| 20260506100310 | 58 | 347 | 3.5 | 5.2 | 0.00 | 0.00 | 0.00 | 75 | 1004.6 |
| 20260506095310 | 57 | 348 | 2.6 | 4.3 | 0.00 | 0.00 | 0.00 | 75 | 1004.9 |
| 20260506094310 | 56 | 355 | 0.9 | 6.1 | 0.00 | 0.00 | 0.00 | 73 | 1004.7 |
| 20260506093310 | 56 | 346 | 2.6 | 3.5 | 0.00 | 0.00 | 0.00 | 76 | 1004.9 |
| 20260506092310 | 56 | 5 | 2.6 | 2.6 | 0.00 | 0.00 | 0.00 | 76 | 1005.1 |
| 20260506091310 | 56 | 350 | 0.9 | 4.3 | 0.00 | 0.00 | 0.00 | 75 | 1005.1 |